Aquasco, MD

6:16 AM EDT on August 31, 2014 (GMT -0400)
Hidden Valley | Change Station
CLOSE
Current Station
Personal Weather Station
Location: Waldorf, MD
Elevation: 174 ft
Nearby Weather Stations

Elev 174 ft 38.56 °N, 76.79 °W | Updated 7 minutes ago

Clear
Clear
71.9 °F
Feels Like 71.9 °F
N
0.0
Wind Variable Wind from SSE
Gusts 0.0 mph

Today
High -- | Low -- °F
--% Chance of Precip.
Yesterday
High -- | Low -- °F
Precip. -- in
6:35 AM 7:38 PM
Waxing Crescent, 29% visible
Pressure 30.13 in
Visibility 6.0 miles
Clouds Clear
Dew Point 72 °F
Humidity 99%
Rainfall 0.00 in
Snow Depth Not available.
UV 0 out of 12
Pollen 9.50 out of 12
Air Quality Not available.
Flu Activity Not available.
METAR KADW 310958Z AUTO 17006KT 6SM BR CLR 22/22 A3011 RMK AO2 SLP201 T02240222

More Conditions Fewer Conditions

Pressure 30.13 in
Visibility 6.0 miles
Clouds Clear
Dew Point 72 °F
Humidity 99%
Rainfall 0.00 in
Snow Depth Not available.
UV 0 out of 12
Pollen 9.50 out of 12
Air Quality Not available.
Flu Activity Not available.
METAR KADW 310958Z AUTO 17006KT 6SM BR CLR 22/22 A3011 RMK AO2 SLP201 T02240222

More Conditions Fewer Conditions

10-Day Weather Forecast

Almanac

Astronomy

Aug. 31, 2014 Rise Set
Actual Time 6:35 AM EDT 7:38 PM EDT
Civil Twilight 6:07 AM EDT 8:05 PM EDT
Nautical Twilight 5:35 AM EDT 8:37 PM EDT
Astronomical Twilight 5:01 AM EDT 9:11 PM EDT
Moon 12:15 PM EDT 10:56 PM EDT
Length of Visible Light 13h 57m
Length of Day
13h 03m
Tomorrow will be 2m 24s shorter.
Waxing Crescent, 29% of the Moon is Illuminated
Today
Waxing Crescent
Sep 2
First Quarter
Sep 8
Full
Sep 15
Last Quarter
Sep 24
New

Today's Extremes

State Highs State Lows

Community

WunderPhotos

Upload Photos

1,748,834 photos uploaded!

Nearby

Snow Depth

Station Depth Elevation
No new snow has been reported.

Earthquake Activity

City Distance Mag. Time & Date
No recent earthquake activity has been reported nearby.
Minimum magnitude displayed is 2.5.

Coastal Water Temperatures

Place Temperature
Solomons Island, MD 79.0 °F
Cambridge, MD 78.1 °F

Nearby Weather Stations